Time;durP1;ratioP1;P1;durP2;ratioP2;P2;SDS_P1;SDS_P2;PMS_P1;PMS_P2;Temp;Humidity;BMP_temperature;BMP_pressure;BME280_temperature;BME280_humidity;BME280_pressure;Samples;Min_cycle;Max_cycle;Signal;HPM_P1;HPM_P2
2021/09/16 00:02:03;;;;;;;4.67;1.73;;;17.20;99.90;;;;;;5075052;28;20512;-73
2021/09/16 00:04:30;;;;;;;3.37;2.37;;;17.20;99.90;;;;;;5070742;28;20494;-70
2021/09/16 00:07:00;;;;;;;3.00;1.83;;;17.20;99.90;;;;;;5058319;28;20554;-72
2021/09/16 00:09:27;;;;;;;6.23;2.63;;;17.10;99.90;;;;;;5074703;28;20824;-70
2021/09/16 00:11:54;;;;;;;3.67;1.50;;;17.10;99.90;;;;;;5068713;28;20589;-70
2021/09/16 00:14:22;;;;;;;3.13;2.07;;;16.80;99.90;;;;;;5058849;28;20471;-71
2021/09/16 00:16:50;;;;;;;2.70;2.00;;;16.90;99.90;;;;;;5063496;28;20480;-74
2021/09/16 00:19:17;;;;;;;2.10;1.80;;;16.90;99.90;;;;;;5061722;28;20555;-70
2021/09/16 00:21:44;;;;;;;1.97;1.67;;;17.00;99.90;;;;;;5057971;28;20566;-70
2021/09/16 00:24:11;;;;;;;4.57;2.00;;;17.00;99.90;;;;;;5061001;28;20479;-71
2021/09/16 00:26:38;;;;;;;3.17;2.27;;;17.00;99.90;;;;;;5061657;28;20487;-72
2021/09/16 00:29:04;;;;;;;4.33;2.77;;;17.00;99.90;;;;;;5065347;28;20833;-71
2021/09/16 00:31:32;;;;;;;3.37;2.37;;;16.90;99.90;;;;;;5065630;28;20510;-71
2021/09/16 00:34:00;;;;;;;6.23;2.13;;;16.80;99.90;;;;;;5065362;28;20474;-71
2021/09/16 00:36:27;;;;;;;2.17;1.70;;;16.80;99.90;;;;;;5058793;28;20569;-70
2021/09/16 00:38:54;;;;;;;2.33;1.60;;;16.70;99.90;;;;;;5069331;28;20525;-71
2021/09/16 00:41:21;;;;;;;2.13;1.50;;;16.90;99.90;;;;;;5066779;28;20582;-70
2021/09/16 00:43:48;;;;;;;2.93;2.13;;;17.00;99.90;;;;;;5067332;28;20606;-75
2021/09/16 00:46:15;;;;;;;3.33;1.67;;;17.00;99.90;;;;;;5062926;28;20526;-70
2021/09/16 00:48:42;;;;;;;1.80;1.40;;;17.10;99.90;;;;;;5068466;28;20487;-71
2021/09/16 00:51:10;;;;;;;2.47;2.00;;;17.00;99.90;;;;;;5066278;28;20569;-71
2021/09/16 00:53:40;;;;;;;2.17;1.30;;;17.00;99.90;;;;;;5068020;28;20455;-71
2021/09/16 00:56:09;;;;;;;2.27;1.50;;;17.00;99.90;;;;;;5070174;28;20482;-71
2021/09/16 00:58:39;;;;;;;3.20;1.60;;;16.90;99.90;;;;;;5066978;28;20571;-72
2021/09/16 01:01:06;;;;;;;1.97;1.47;;;16.80;99.90;;;;;;5064778;28;20495;-70
2021/09/16 01:03:33;;;;;;;2.20;1.40;;;16.80;99.90;;;;;;5058806;28;20541;-71
2021/09/16 01:06:00;;;;;;;4.50;1.93;;;16.90;99.90;;;;;;5066181;28;20493;-70
2021/09/16 01:08:29;;;;;;;5.30;2.00;;;16.80;99.90;;;;;;5064083;28;20591;-70
2021/09/16 01:10:58;;;;;;;3.50;1.60;;;16.90;99.90;;;;;;5063002;28;20563;-71
2021/09/16 01:13:25;;;;;;;3.70;1.37;;;16.90;99.90;;;;;;5066611;28;20451;-71
2021/09/16 01:15:52;;;;;;;3.07;1.70;;;16.90;99.90;;;;;;5068879;28;20496;-70
2021/09/16 01:18:19;;;;;;;2.37;1.57;;;17.00;99.90;;;;;;5067994;28;21053;-70
2021/09/16 01:20:46;;;;;;;1.63;1.40;;;17.00;99.90;;;;;;5069548;28;20577;-71
2021/09/16 01:23:14;;;;;;;3.63;1.27;;;17.00;99.90;;;;;;5068558;28;20569;-72
2021/09/16 01:25:41;;;;;;;2.67;1.23;;;17.10;99.90;;;;;;5067351;28;20537;-73
2021/09/16 01:28:08;;;;;;;2.00;1.40;;;17.00;99.90;;;;;;5067163;28;20549;-71
2021/09/16 01:30:35;;;;;;;3.60;1.50;;;16.90;99.90;;;;;;5064676;28;20892;-71
2021/09/16 01:33:02;;;;;;;1.97;1.53;;;16.90;99.90;;;;;;5065143;28;20517;-71
2021/09/16 01:35:29;;;;;;;2.33;1.90;;;16.80;99.90;;;;;;5076919;28;20446;-70
2021/09/16 01:37:57;;;;;;;1.73;1.37;;;16.60;99.90;;;;;;5069771;28;20442;-70
2021/09/16 01:40:26;;;;;;;3.77;1.30;;;16.50;99.90;;;;;;5064214;28;20512;-70
2021/09/16 01:42:52;;;;;;;4.83;1.40;;;16.60;99.90;;;;;;5072020;28;20488;-70
2021/09/16 01:45:22;;;;;;;1.70;1.30;;;16.60;99.90;;;;;;5067431;28;20467;-71
2021/09/16 01:47:50;;;;;;;4.07;1.40;;;16.50;99.90;;;;;;5067356;28;21456;-73
2021/09/16 01:50:18;;;;;;;12.43;2.00;;;16.60;99.90;;;;;;5066469;28;20557;-70
2021/09/16 01:52:46;;;;;;;4.83;1.57;;;16.50;99.90;;;;;;5071419;28;20447;-70
2021/09/16 01:55:14;;;;;;;2.23;1.60;;;16.70;99.90;;;;;;5068874;28;20543;-70
2021/09/16 01:57:43;;;;;;;3.27;1.10;;;16.80;99.90;;;;;;5067316;28;20512;-70
2021/09/16 02:00:11;;;;;;;8.83;2.00;;;16.80;99.90;;;;;;5067339;28;20535;-70
2021/09/16 02:02:38;;;;;;;1.77;1.47;;;16.70;99.90;;;;;;5067151;28;20549;-73
2021/09/16 02:05:06;;;;;;;3.40;1.57;;;16.70;99.90;;;;;;5068848;28;20529;-71
2021/09/16 02:07:33;;;;;;;3.30;1.47;;;16.70;99.90;;;;;;5074407;28;20551;-70
2021/09/16 02:10:00;;;;;;;2.70;1.47;;;16.80;99.90;;;;;;5064385;28;20561;-72
2021/09/16 02:12:27;;;;;;;3.47;1.37;;;16.80;99.90;;;;;;5066024;28;20473;-71
2021/09/16 02:14:56;;;;;;;2.77;1.70;;;16.80;99.90;;;;;;5068976;28;20534;-70
2021/09/16 02:17:22;;;;;;;2.27;1.53;;;17.00;99.90;;;;;;5070775;28;20531;-72
2021/09/16 02:19:49;;;;;;;2.50;1.70;;;16.90;99.90;;;;;;5070778;28;20561;-72
2021/09/16 02:22:16;;;;;;;1.50;1.03;;;16.80;99.90;;;;;;5067043;28;20983;-70
2021/09/16 02:24:43;;;;;;;2.10;1.60;;;16.70;99.90;;;;;;5066354;28;20490;-70
2021/09/16 02:27:10;;;;;;;3.30;1.70;;;16.80;99.90;;;;;;5060151;28;20541;-70
2021/09/16 02:29:38;;;;;;;1.60;1.30;;;16.90;99.90;;;;;;5061618;28;20495;-71
2021/09/16 02:32:08;;;;;;;7.47;1.77;;;16.90;99.90;;;;;;5063484;28;20511;-72
2021/09/16 02:34:35;;;;;;;4.60;1.57;;;16.90;99.90;;;;;;5055118;28;20475;-71
2021/09/16 02:37:02;;;;;;;11.60;2.23;;;16.90;99.90;;;;;;5069234;28;20455;-72
2021/09/16 02:39:29;;;;;;;1.40;1.10;;;16.90;99.90;;;;;;5061962;28;20512;-71
2021/09/16 02:41:56;;;;;;;1.70;1.20;;;17.00;99.90;;;;;;5056835;28;20576;-71
2021/09/16 02:44:23;;;;;;;4.10;1.33;;;17.00;99.90;;;;;;5065602;28;20566;-72
2021/09/16 02:46:50;;;;;;;2.30;1.20;;;16.90;99.90;;;;;;5071782;28;20529;-70
2021/09/16 02:49:18;;;;;;;2.20;1.40;;;16.90;99.90;;;;;;5067895;28;20483;-70
2021/09/16 02:51:45;;;;;;;1.70;1.17;;;17.00;99.90;;;;;;5058025;28;20517;-70
2021/09/16 02:54:12;;;;;;;5.60;1.30;;;17.00;99.90;;;;;;5071979;28;20887;-71
2021/09/16 02:56:40;;;;;;;2.93;1.50;;;16.90;99.90;;;;;;5069626;28;20537;-71
2021/09/16 02:59:07;;;;;;;1.30;1.07;;;16.90;99.90;;;;;;5065195;28;20875;-71
2021/09/16 03:01:34;;;;;;;1.30;0.90;;;16.90;99.90;;;;;;5065202;28;20562;-71
2021/09/16 03:04:01;;;;;;;1.30;1.00;;;16.80;99.90;;;;;;5054439;28;20578;-71
2021/09/16 03:06:30;;;;;;;4.20;1.83;;;16.60;99.90;;;;;;5060730;28;20496;-71
2021/09/16 03:08:56;;;;;;;3.87;1.37;;;16.50;99.90;;;;;;5066970;28;20532;-71
2021/09/16 03:11:23;;;;;;;10.10;1.90;;;16.30;99.90;;;;;;5068776;28;20513;-71
2021/09/16 03:13:50;;;;;;;2.60;1.27;;;16.20;99.90;;;;;;5057910;28;20467;-72
2021/09/16 03:16:17;;;;;;;2.93;1.53;;;16.30;99.90;;;;;;5061556;28;20446;-72
2021/09/16 03:18:44;;;;;;;4.50;1.20;;;16.20;99.90;;;;;;5070414;28;20882;-74
2021/09/16 03:21:11;;;;;;;2.50;1.60;;;16.20;99.90;;;;;;5072254;28;20571;-72
2021/09/16 03:23:40;;;;;;;2.00;1.20;;;16.10;99.90;;;;;;5068135;28;20506;-71
2021/09/16 03:26:07;;;;;;;2.43;1.57;;;16.00;99.90;;;;;;5066025;28;20558;-71
2021/09/16 03:28:37;;;;;;;1.20;1.07;;;16.00;99.90;;;;;;5067635;28;20541;-70
2021/09/16 03:31:04;;;;;;;1.80;1.47;;;15.90;99.90;;;;;;5075620;28;20527;-71
2021/09/16 03:33:31;;;;;;;1.70;1.23;;;15.80;99.90;;;;;;5070083;28;20478;-70
2021/09/16 03:35:58;;;;;;;1.70;1.40;;;15.90;99.90;;;;;;5080656;28;20441;-71
2021/09/16 03:38:25;;;;;;;2.43;1.53;;;16.00;99.90;;;;;;5065041;28;20942;-72
2021/09/16 03:40:54;;;;;;;2.57;1.37;;;16.00;99.90;;;;;;5068039;28;21036;-71
2021/09/16 03:43:20;;;;;;;2.73;1.23;;;16.10;99.90;;;;;;5079160;28;20913;-73
2021/09/16 03:45:47;;;;;;;4.30;1.53;;;16.00;99.90;;;;;;5071986;28;20542;-71
2021/09/16 03:48:14;;;;;;;2.50;1.97;;;16.10;99.90;;;;;;5059870;28;20446;-71
2021/09/16 03:50:41;;;;;;;2.27;1.33;;;16.10;99.90;;;;;;5068173;28;20564;-71
2021/09/16 03:53:09;;;;;;;2.63;1.30;;;16.10;99.90;;;;;;5069085;28;20502;-71
2021/09/16 03:55:35;;;;;;;1.60;1.50;;;16.10;99.90;;;;;;5072183;28;20992;-71
2021/09/16 03:58:04;;;;;;;3.00;1.70;;;16.10;99.90;;;;;;5063690;28;20580;-71
2021/09/16 04:00:31;;;;;;;2.10;1.20;;;16.00;99.90;;;;;;5068495;28;20490;-69
2021/09/16 04:03:05;;;;;;;4.40;1.37;;;16.10;99.90;;;;;;5060200;28;20546;-71
2021/09/16 04:05:32;;;;;;;4.50;1.60;;;16.10;99.90;;;;;;5066917;28;20478;-71
2021/09/16 04:07:58;;;;;;;3.67;1.87;;;16.10;99.90;;;;;;5069280;28;20482;-72
2021/09/16 04:10:25;;;;;;;9.30;3.53;;;16.20;99.90;;;;;;5064551;28;20975;-72
2021/09/16 04:12:52;;;;;;;4.37;1.50;;;16.20;99.90;;;;;;5062866;28;20489;-68
2021/09/16 04:15:21;;;;;;;2.90;1.60;;;16.10;99.90;;;;;;5061018;28;21914;-71
2021/09/16 04:17:48;;;;;;;7.53;1.90;;;16.00;99.90;;;;;;5069701;28;20451;-72
2021/09/16 04:20:15;;;;;;;2.93;2.10;;;15.80;99.90;;;;;;5067857;28;20505;-71
2021/09/16 04:22:42;;;;;;;4.40;1.77;;;15.70;99.90;;;;;;5076796;28;20557;-73
2021/09/16 04:25:10;;;;;;;5.03;1.73;;;15.80;99.90;;;;;;5068410;28;20569;-71
2021/09/16 04:27:37;;;;;;;3.83;2.10;;;15.70;99.90;;;;;;5076833;28;20537;-71
2021/09/16 04:30:05;;;;;;;4.93;3.23;;;15.70;99.90;;;;;;5069825;28;21318;-71
2021/09/16 04:32:33;;;;;;;3.80;2.10;;;15.60;99.90;;;;;;5077262;28;20536;-70
2021/09/16 04:35:00;;;;;;;2.43;1.90;;;15.50;99.90;;;;;;5070777;28;20537;-71
2021/09/16 04:37:27;;;;;;;8.47;1.80;;;15.50;99.90;;;;;;5065008;28;20455;-72
2021/09/16 04:39:54;;;;;;;4.90;2.00;;;15.40;99.90;;;;;;5067820;28;20887;-72
2021/09/16 04:42:20;;;;;;;4.13;1.80;;;15.30;99.90;;;;;;5074733;28;20568;-73
2021/09/16 04:44:47;;;;;;;2.93;1.67;;;15.30;99.90;;;;;;5061027;28;20486;-72
2021/09/16 04:47:14;;;;;;;2.80;1.90;;;15.20;99.90;;;;;;5067887;28;20485;-74
2021/09/16 04:49:42;;;;;;;5.07;2.00;;;15.30;99.90;;;;;;5067116;28;20489;-71
2021/09/16 04:52:09;;;;;;;4.20;2.13;;;15.00;99.90;;;;;;5070535;28;20561;-71
2021/09/16 04:54:36;;;;;;;2.27;1.60;;;15.10;99.90;;;;;;5070231;28;20785;-72
2021/09/16 04:57:04;;;;;;;5.67;2.20;;;15.10;99.90;;;;;;5068955;28;20454;-72
2021/09/16 04:59:31;;;;;;;3.63;1.73;;;15.20;99.90;;;;;;5067060;28;20513;-70
2021/09/16 05:01:58;;;;;;;2.73;1.97;;;15.00;99.90;;;;;;5067164;28;20486;-71
2021/09/16 05:04:24;;;;;;;4.60;2.33;;;15.00;99.90;;;;;;5067094;28;20479;-71
2021/09/16 05:06:54;;;;;;;3.10;2.30;;;15.10;99.90;;;;;;5067689;28;20446;-72
2021/09/16 05:09:21;;;;;;;4.13;1.83;;;15.00;99.90;;;;;;5066606;28;20485;-71
2021/09/16 05:11:48;;;;;;;3.10;1.80;;;15.00;99.90;;;;;;5097376;22;20536;-71
2021/09/16 05:14:16;;;;;;;3.13;1.90;;;15.00;99.90;;;;;;5072712;28;20882;-72
2021/09/16 05:16:43;;;;;;;3.20;1.90;;;15.00;99.90;;;;;;5085887;28;20943;-70
2021/09/16 05:19:10;;;;;;;3.10;2.23;;;14.90;99.90;;;;;;5089964;28;20461;-68
2021/09/16 05:21:37;;;;;;;5.07;3.23;;;15.00;99.90;;;;;;5077709;28;20458;-69
2021/09/16 05:24:06;;;;;;;12.50;2.57;;;14.90;99.90;;;;;;5082811;28;20940;-69
2021/09/16 05:26:33;;;;;;;4.60;2.23;;;14.80;99.90;;;;;;5086425;28;20473;-69
2021/09/16 05:29:00;;;;;;;3.73;3.00;;;14.90;99.90;;;;;;5088977;28;20457;-69
2021/09/16 05:31:27;;;;;;;3.40;1.93;;;14.90;99.90;;;;;;5083393;28;21013;-69
2021/09/16 05:33:54;;;;;;;3.27;2.10;;;15.00;99.90;;;;;;5089676;28;20824;-72
2021/09/16 05:36:21;;;;;;;6.70;2.83;;;15.10;99.90;;;;;;5087402;28;20941;-70
2021/09/16 05:38:48;;;;;;;9.50;3.40;;;15.10;99.90;;;;;;5087411;28;20557;-69
2021/09/16 05:41:16;;;;;;;7.87;3.60;;;15.20;99.90;;;;;;5087692;28;20501;-70
2021/09/16 05:43:43;;;;;;;7.03;3.40;;;15.30;99.90;;;;;;5089583;28;21164;-70
2021/09/16 05:46:10;;;;;;;5.27;4.20;;;15.20;99.90;;;;;;5088970;28;21083;-69
2021/09/16 05:48:37;;;;;;;8.50;4.00;;;15.30;99.90;;;;;;5092976;28;20492;-72
2021/09/16 05:51:04;;;;;;;11.77;3.83;;;15.40;99.90;;;;;;5089492;28;20552;-71
2021/09/16 05:53:31;;;;;;;6.10;2.57;;;15.40;99.90;;;;;;5093786;28;20468;-70
2021/09/16 05:55:58;;;;;;;9.20;3.60;;;15.40;99.90;;;;;;5092497;28;20527;-70
2021/09/16 05:58:26;;;;;;;12.33;3.03;;;15.40;99.90;;;;;;5091429;28;20561;-72
2021/09/16 06:00:53;;;;;;;3.50;1.60;;;15.30;99.90;;;;;;5089251;28;20574;-70
2021/09/16 06:03:20;;;;;;;5.70;3.30;;;15.40;99.90;;;;;;5091210;28;20489;-70
2021/09/16 06:05:47;;;;;;;5.93;2.50;;;15.50;99.90;;;;;;5091605;28;20481;-73
2021/09/16 06:08:14;;;;;;;3.17;2.50;;;15.60;99.90;;;;;;5090517;28;20454;-68
2021/09/16 06:10:41;;;;;;;6.57;3.50;;;15.60;99.90;;;;;;5086434;28;20814;-70
2021/09/16 06:13:08;;;;;;;6.23;3.80;;;15.60;99.90;;;;;;5091185;28;20851;-73
2021/09/16 06:15:36;;;;;;;4.87;2.60;;;15.70;99.90;;;;;;5089009;28;20450;-69
2021/09/16 06:18:03;;;;;;;9.03;3.63;;;15.80;99.90;;;;;;5087185;28;20497;-75
2021/09/16 06:20:30;;;;;;;7.73;3.07;;;15.90;99.90;;;;;;5081907;28;20487;-70
2021/09/16 06:22:57;;;;;;;4.33;2.93;;;15.80;99.90;;;;;;5093432;28;20891;-70
2021/09/16 06:25:24;;;;;;;4.00;2.93;;;15.90;99.90;;;;;;5092245;28;20485;-70
2021/09/16 06:27:51;;;;;;;11.50;4.17;;;15.80;99.90;;;;;;5091471;28;20502;-70
2021/09/16 06:30:17;;;;;;;9.03;4.10;;;15.80;99.90;;;;;;5086290;28;20900;-72
2021/09/16 06:32:47;;;;;;;6.50;2.37;;;15.80;99.90;;;;;;5088386;28;20965;-70
2021/09/16 06:35:15;;;;;;;5.87;2.73;;;15.80;99.90;;;;;;5091627;28;20887;-70
2021/09/16 06:37:42;;;;;;;5.17;4.67;;;15.80;99.90;;;;;;5092691;28;20865;-72
2021/09/16 06:40:10;;;;;;;4.97;4.10;;;15.80;99.90;;;;;;5089606;28;20521;-70
2021/09/16 06:42:38;;;;;;;4.57;3.10;;;15.90;99.90;;;;;;5091792;28;20470;-70
2021/09/16 06:45:06;;;;;;;4.70;3.17;;;15.80;99.90;;;;;;5090909;28;20481;-70
2021/09/16 06:47:33;;;;;;;8.40;3.40;;;15.90;99.90;;;;;;5093066;28;20508;-69
2021/09/16 06:50:02;;;;;;;10.67;5.33;;;16.00;99.90;;;;;;5091889;28;20481;-71
2021/09/16 06:52:28;;;;;;;8.90;3.80;;;16.10;99.90;;;;;;5091094;28;20526;-71
2021/09/16 06:54:57;;;;;;;7.00;4.30;;;16.20;99.90;;;;;;5093138;28;20916;-69
2021/09/16 06:57:24;;;;;;;7.90;4.67;;;16.20;99.90;;;;;;5091367;28;20538;-72
2021/09/16 06:59:51;;;;;;;11.03;4.73;;;16.20;99.90;;;;;;5088518;28;20501;-69
2021/09/16 07:02:18;;;;;;;20.00;5.80;;;16.10;99.90;;;;;;5092119;28;20501;-70
2021/09/16 07:04:45;;;;;;;7.50;4.60;;;16.10;99.90;;;;;;5089926;28;20547;-70
2021/09/16 07:07:14;;;;;;;6.80;3.90;;;16.30;99.90;;;;;;5092978;28;20454;-69
2021/09/16 07:09:40;;;;;;;5.43;4.43;;;16.20;99.90;;;;;;5090985;28;20548;-73
2021/09/16 07:12:08;;;;;;;9.83;5.77;;;16.10;99.90;;;;;;5079847;28;20482;-70
2021/09/16 07:14:34;;;;;;;9.93;6.07;;;16.00;99.90;;;;;;5090779;28;20966;-69
2021/09/16 07:17:02;;;;;;;13.00;5.87;;;16.10;99.90;;;;;;5087280;28;20526;-71
2021/09/16 07:19:29;;;;;;;13.87;6.53;;;16.10;99.90;;;;;;5084953;28;20563;-69
2021/09/16 07:21:56;;;;;;;19.60;7.03;;;16.20;99.90;;;;;;5088430;28;20513;-68
2021/09/16 07:24:24;;;;;;;12.53;7.13;;;16.20;99.90;;;;;;5092488;28;20813;-68
2021/09/16 07:26:51;;;;;;;9.13;5.13;;;16.20;99.90;;;;;;5092069;28;20494;-72
2021/09/16 07:29:19;;;;;;;7.70;5.80;;;16.10;99.90;;;;;;5091727;28;20458;-69
2021/09/16 07:31:46;;;;;;;7.60;5.60;;;16.00;99.90;;;;;;5089596;28;20485;-68
2021/09/16 07:34:14;;;;;;;8.40;6.53;;;16.20;99.90;;;;;;5092522;28;20452;-68
2021/09/16 07:36:43;;;;;;;10.00;6.20;;;16.10;99.90;;;;;;5089180;28;20854;-69
2021/09/16 07:39:10;;;;;;;15.43;6.10;;;16.20;99.90;;;;;;5090373;28;20606;-69
2021/09/16 07:41:39;;;;;;;15.60;6.40;;;16.20;99.90;;;;;;5077919;28;20541;-69
2021/09/16 07:44:06;;;;;;;14.60;7.23;;;16.20;99.90;;;;;;5091054;28;20493;-69
2021/09/16 07:46:33;;;;;;;9.27;7.03;;;16.20;99.90;;;;;;5092143;28;20486;-69
2021/09/16 07:49:00;;;;;;;13.23;7.30;;;16.40;99.90;;;;;;5085467;28;20542;-70
2021/09/16 07:51:27;;;;;;;15.10;6.20;;;16.40;99.90;;;;;;5088822;28;20464;-69
2021/09/16 07:53:55;;;;;;;8.80;6.50;;;16.50;99.90;;;;;;5091415;28;20499;-69
2021/09/16 07:56:22;;;;;;;7.83;6.40;;;16.40;99.90;;;;;;5091409;28;20632;-69
2021/09/16 07:58:50;;;;;;;23.33;11.70;;;16.50;99.90;;;;;;5091239;28;20470;-68
2021/09/16 08:01:17;;;;;;;15.73;12.53;;;16.50;99.90;;;;;;5085829;28;20505;-69
2021/09/16 08:03:44;;;;;;;24.17;16.33;;;16.60;99.90;;;;;;5090156;28;20512;-69
2021/09/16 08:06:11;;;;;;;29.53;18.30;;;16.70;99.90;;;;;;5091236;28;20894;-69
2021/09/16 08:08:38;;;;;;;18.93;11.80;;;16.60;99.90;;;;;;5091505;28;20445;-69
2021/09/16 08:11:05;;;;;;;18.23;13.50;;;16.60;99.90;;;;;;5084797;28;20511;-68
2021/09/16 08:13:32;;;;;;;19.00;13.53;;;16.80;99.90;;;;;;5087838;28;20522;-68
2021/09/16 08:16:01;;;;;;;9.83;7.17;;;16.90;99.90;;;;;;5090386;28;20461;-69
2021/09/16 08:18:28;;;;;;;15.17;10.20;;;16.90;99.90;;;;;;5084274;28;20486;-69
2021/09/16 08:20:55;;;;;;;20.00;12.90;;;16.90;99.90;;;;;;5084099;28;20458;-70
2021/09/16 08:23:22;;;;;;;19.80;14.00;;;16.80;99.90;;;;;;5090796;28;20474;-70
2021/09/16 08:25:49;;;;;;;15.97;9.80;;;16.70;99.90;;;;;;5090772;28;20596;-69
2021/09/16 08:28:16;;;;;;;29.60;22.43;;;16.70;99.90;;;;;;5086498;28;20858;-69
2021/09/16 08:30:45;;;;;;;8.77;6.63;;;16.70;99.90;;;;;;5085939;28;20478;-70
2021/09/16 08:33:14;;;;;;;8.93;7.57;;;16.70;99.90;;;;;;5090309;28;20903;-69
2021/09/16 08:35:41;;;;;;;6.47;5.17;;;16.70;99.90;;;;;;5087813;28;20529;-71
2021/09/16 08:38:09;;;;;;;11.20;5.23;;;16.80;99.90;;;;;;5090731;28;20457;-69
2021/09/16 08:40:36;;;;;;;12.07;6.00;;;16.80;99.90;;;;;;5081554;28;20541;-68
2021/09/16 08:43:04;;;;;;;7.50;5.30;;;17.00;99.90;;;;;;5088688;28;20567;-69
2021/09/16 08:45:31;;;;;;;9.70;6.00;;;17.10;99.90;;;;;;5091989;28;20484;-69
2021/09/16 08:47:58;;;;;;;8.27;6.57;;;17.10;99.90;;;;;;5090776;28;20514;-70
2021/09/16 08:50:28;;;;;;;7.20;5.17;;;17.10;99.90;;;;;;5089885;28;20585;-68
2021/09/16 08:52:56;;;;;;;7.53;5.40;;;17.20;99.90;;;;;;5086711;28;20497;-71
2021/09/16 08:55:24;;;;;;;9.37;4.27;;;17.40;99.90;;;;;;5090465;28;20477;-69
2021/09/16 08:57:55;;;;;;;7.90;5.60;;;17.50;99.90;;;;;;5089809;28;20473;-69
2021/09/16 09:00:23;;;;;;;10.73;5.00;;;17.60;99.90;;;;;;5086077;28;20458;-70
2021/09/16 09:02:51;;;;;;;9.33;5.60;;;17.70;99.90;;;;;;5089439;28;20553;-75
2021/09/16 09:05:19;;;;;;;6.63;5.37;;;17.80;99.90;;;;;;5088620;28;20509;-69
2021/09/16 09:07:49;;;;;;;6.90;5.90;;;17.70;99.90;;;;;;5089343;28;20461;-73
2021/09/16 09:10:35;;;;;;;19.77;5.70;;;17.80;99.90;;;;;;5082118;28;20545;-70
2021/09/16 09:13:03;;;;;;;11.43;6.13;;;17.90;99.90;;;;;;5085598;28;20561;-74
2021/09/16 09:15:30;;;;;;;6.97;5.77;;;18.20;99.90;;;;;;5085308;28;20482;-70
2021/09/16 09:18:05;;;;;;;7.73;5.63;;;18.50;99.90;;;;;;5084943;28;20445;-70
2021/09/16 09:20:32;;;;;;;4.70;4.30;;;19.10;99.90;;;;;;5081528;28;20548;-72
2021/09/16 09:23:20;;;;;;;5.07;4.03;;;20.60;99.90;;;;;;5090706;28;20564;-70
2021/09/16 09:25:47;;;;;;;3.80;3.50;;;21.70;99.90;;;;;;5093324;28;20507;-70
2021/09/16 09:28:29;;;;;;;5.50;4.70;;;21.50;99.90;;;;;;5093253;28;20477;-73
2021/09/16 09:30:56;;;;;;;4.40;4.00;;;20.70;99.90;;;;;;5088719;28;20464;-70
2021/09/16 09:33:29;;;;;;;5.03;4.00;;;20.20;99.90;;;;;;5092944;28;21033;-69
2021/09/16 09:35:57;;;;;;;5.43;4.70;;;19.80;99.90;;;;;;5091273;28;20965;-69
2021/09/16 09:38:27;;;;;;;8.90;4.50;;;19.60;99.90;;;;;;5091607;28;20445;-69
2021/09/16 09:40:57;;;;;;;5.90;3.60;;;19.50;99.90;;;;;;5089834;28;20533;-69
2021/09/16 09:43:29;;;;;;;4.80;4.13;;;19.50;99.90;;;;;;5089869;28;20464;-70
2021/09/16 09:46:08;;;;;;;3.50;3.20;;;19.30;99.90;;;;;;5091883;28;20572;-69
2021/09/16 09:48:37;;;;;;;6.00;3.00;;;19.10;99.90;;;;;;5088314;28;20852;-70
2021/09/16 09:51:05;;;;;;;8.63;4.40;;;19.00;99.90;;;;;;5090927;28;20740;-69
2021/09/16 09:53:37;;;;;;;9.80;4.90;;;19.00;99.90;;;;;;5091642;28;20531;-70
2021/09/16 09:56:13;;;;;;;9.77;5.80;;;19.10;99.90;;;;;;5092897;28;20807;-69
2021/09/16 09:58:40;;;;;;;13.57;8.97;;;19.30;99.90;;;;;;5091404;28;20488;-69
2021/09/16 10:01:29;;;;;;;8.13;5.37;;;19.50;99.90;;;;;;5091842;28;20527;-71
2021/09/16 10:03:57;;;;;;;12.53;5.90;;;19.50;99.90;;;;;;5087403;28;20489;-70
2021/09/16 10:06:34;;;;;;;8.47;5.70;;;19.50;99.90;;;;;;5092390;28;20484;-72
2021/09/16 10:09:14;;;;;;;7.43;5.40;;;19.40;99.90;;;;;;5090549;28;20606;-73
2021/09/16 10:11:42;;;;;;;6.60;5.27;;;19.60;99.90;;;;;;5086195;28;20911;-70
2021/09/16 10:14:10;;;;;;;13.00;7.30;;;19.70;99.90;;;;;;5089382;28;20487;-70
2021/09/16 10:16:37;;;;;;;5.20;4.50;;;20.00;99.90;;;;;;5087862;28;20441;-69
2021/09/16 10:19:04;;;;;;;6.30;5.20;;;20.80;99.90;;;;;;5091442;28;20449;-77
2021/09/16 10:21:31;;;;;;;11.40;5.07;;;21.70;99.90;;;;;;5087889;28;20507;-69
2021/09/16 10:24:00;;;;;;;5.03;4.30;;;21.40;99.90;;;;;;5091858;28;20453;-70
2021/09/16 10:26:36;;;;;;;11.20;5.40;;;21.90;99.90;;;;;;5091262;28;20486;-69
2021/09/16 10:29:05;;;;;;;7.63;5.23;;;23.50;99.90;;;;;;5089390;28;20532;-69
2021/09/16 10:31:32;;;;;;;6.00;4.80;;;24.40;99.90;;;;;;5085657;28;21036;-70
2021/09/16 10:33:59;;;;;;;7.23;4.40;;;23.90;99.90;;;;;;5089011;28;20827;-71
2021/09/16 10:36:26;;;;;;;5.53;4.50;;;22.80;99.90;;;;;;5088880;28;20478;-74
2021/09/16 10:38:55;;;;;;;6.07;3.57;;;22.80;99.90;;;;;;5089298;28;20465;-73
2021/09/16 10:41:25;;;;;;;5.17;3.40;;;22.90;99.90;;;;;;5086947;28;20832;-73
2021/09/16 10:44:19;;;;;;;3.60;2.80;;;23.10;99.90;;;;;;5088052;28;20442;-69
2021/09/16 10:46:47;;;;;;;4.20;3.73;;;22.60;99.90;;;;;;5090380;28;21155;-70
2021/09/16 10:49:31;;;;;;;4.97;2.73;;;23.20;99.90;;;;;;5089612;28;21016;-67
2021/09/16 10:52:01;;;;;;;3.20;2.60;;;24.40;99.90;;;;;;5088219;28;20560;-69
2021/09/16 10:54:39;;;;;;;2.67;2.33;;;25.30;99.90;;;;;;5089716;28;20445;-70
2021/09/16 10:57:09;;;;;;;3.70;2.20;;;26.60;99.90;;;;;;5090278;28;20828;-70
2021/09/16 11:00:09;;;;;;;3.37;3.03;;;27.60;99.90;;;;;;5084317;28;20649;-69
2021/09/16 11:03:11;;;;;;;2.50;2.30;;;28.20;99.90;;;;;;5089233;28;20470;-79
2021/09/16 11:05:47;;;;;;;12.00;2.33;;;28.40;99.90;;;;;;5089632;28;20581;-69
2021/09/16 11:08:15;;;;;;;4.50;1.80;;;26.80;99.90;;;;;;5090900;28;20528;-73
2021/09/16 11:10:58;;;;;;;6.67;1.97;;;27.10;99.90;;;;;;5078703;28;20911;-69
2021/09/16 11:13:54;;;;;;;3.30;2.20;;;26.80;99.90;;;;;;5074496;22;20928;-71
2021/09/16 11:16:27;;;;;;;2.70;1.90;;;24.90;99.90;;;;;;5069826;28;20446;-71
2021/09/16 11:19:06;;;;;;;8.73;1.43;;;24.00;99.90;;;;;;5070991;28;20451;-70
2021/09/16 11:21:33;;;;;;;3.20;1.60;;;23.20;99.90;;;;;;5063900;28;20482;-71
2021/09/16 11:24:05;;;;;;;1.93;1.70;;;22.50;99.90;;;;;;5070392;28;20478;-71
2021/09/16 11:26:32;;;;;;;3.10;1.87;;;22.10;99.90;;;;;;5070696;28;20577;-71
2021/09/16 11:29:01;;;;;;;4.20;1.83;;;22.10;99.90;;;;;;5070301;28;20541;-71
2021/09/16 11:31:30;;;;;;;1.90;1.40;;;21.90;99.90;;;;;;5060269;28;20536;-72
2021/09/16 11:34:12;;;;;;;11.13;2.00;;;21.90;99.90;;;;;;5067974;28;20593;-72
2021/09/16 11:37:04;;;;;;;1.60;1.40;;;21.40;99.90;;;;;;5071689;28;20532;-70
2021/09/16 11:39:31;;;;;;;1.73;1.40;;;21.20;99.90;;;;;;5067736;28;20498;-71
2021/09/16 11:42:13;;;;;;;2.83;1.10;;;21.20;99.90;;;;;;5064036;28;20454;-71
2021/09/16 11:44:55;;;;;;;1.83;1.60;;;21.20;99.90;;;;;;5067330;28;20549;-71
2021/09/16 11:47:24;;;;;;;1.60;1.20;;;21.00;99.90;;;;;;5069631;28;20566;-71
2021/09/16 11:49:52;;;;;;;3.20;1.20;;;20.90;99.90;;;;;;5068886;28;20553;-71
2021/09/16 11:52:19;;;;;;;5.57;1.50;;;21.10;99.90;;;;;;5066827;28;20514;-71
2021/09/16 11:55:02;;;;;;;2.20;1.40;;;21.50;99.90;;;;;;5068469;28;20906;-71
2021/09/16 11:57:29;;;;;;;3.00;1.53;;;22.00;99.90;;;;;;5069852;28;22066;-70
2021/09/16 11:59:55;;;;;;;2.63;1.30;;;21.90;99.90;;;;;;5068090;28;20545;-71
2021/09/16 12:02:24;;;;;;;2.53;1.10;;;21.60;99.90;;;;;;5068580;28;20895;-72
2021/09/16 12:04:51;;;;;;;1.93;1.50;;;21.30;99.90;;;;;;5067786;28;20447;-70
2021/09/16 12:07:18;;;;;;;1.97;1.77;;;20.80;99.90;;;;;;5068107;28;20896;-71
2021/09/16 12:09:45;;;;;;;1.37;0.90;;;20.60;99.90;;;;;;5066197;28;20570;-72
2021/09/16 12:12:12;;;;;;;4.87;1.37;;;20.60;99.90;;;;;;5068327;28;20514;-71
2021/09/16 12:14:39;;;;;;;4.13;1.40;;;20.90;99.90;;;;;;5068692;28;20443;-71
2021/09/16 12:17:06;;;;;;;3.77;0.97;;;20.90;99.90;;;;;;5069814;28;20516;-71
2021/09/16 12:19:35;;;;;;;4.67;1.77;;;21.00;99.90;;;;;;5066805;28;20553;-70
2021/09/16 12:22:02;;;;;;;2.60;1.20;;;22.30;99.90;;;;;;5067653;28;20556;-71
2021/09/16 12:24:30;;;;;;;3.77;1.20;;;23.90;99.90;;;;;;5068984;28;20677;-70
2021/09/16 12:26:58;;;;;;;1.20;1.00;;;24.30;99.90;;;;;;5059879;28;20518;-71
2021/09/16 12:29:27;;;;;;;9.13;1.80;;;24.60;99.90;;;;;;5068205;28;20466;-71
2021/09/16 12:31:59;;;;;;;3.13;1.43;;;24.60;99.90;;;;;;5065860;28;20462;-71
2021/09/16 12:34:30;;;;;;;1.47;1.10;;;25.50;99.90;;;;;;5066052;28;20454;-71
2021/09/16 12:37:00;;;;;;;2.33;1.40;;;26.10;99.90;;;;;;5069340;28;20510;-71
2021/09/16 12:39:29;;;;;;;1.50;1.00;;;26.60;99.90;;;;;;5066081;28;20438;-70
2021/09/16 12:41:57;;;;;;;1.30;1.10;;;26.80;99.90;;;;;;5070063;28;20546;-71
2021/09/16 12:44:26;;;;;;;10.03;2.53;;;27.20;99.90;;;;;;5062561;28;20895;-71
2021/09/16 12:46:58;;;;;;;3.97;1.57;;;27.70;99.90;;;;;;5069142;28;20522;-71
2021/09/16 12:49:34;;;;;;;4.77;1.20;;;27.70;99.90;;;;;;5068093;28;20458;-72
2021/09/16 12:52:09;;;;;;;2.60;1.10;;;28.80;99.90;;;;;;5067915;28;20494;-71
2021/09/16 12:54:42;;;;;;;2.90;1.17;;;28.60;99.90;;;;;;5063274;28;20509;-71